Time,TemperatureF,DewpointF,PressureIn,WindDirection,WindDirectionDegrees,WindSpeedMPH,WindSpeedGustMPH,Humidity,HourlyPrecipIn,Conditions,Clouds,dailyrainin,SoftwareType,DateUTC
2013-08-24 00:00:00,79.7,39.7,30.01,NNW,331,8.0,8.0,24,0.00,,,0.00,Wunderground v.1.15,2013-08-24 07:00:00,
2013-08-24 00:05:00,79.7,39.7,30.01,NW,313,9.0,9.0,24,0.00,,,0.00,Wunderground v.1.15,2013-08-24 07:05:00,
2013-08-24 00:15:00,79.7,39.7,30.01,NW,321,9.0,16.0,24,0.00,,,0.00,Wunderground v.1.15,2013-08-24 07:15:00,
2013-08-24 00:20:00,79.7,39.7,30.01,West,281,9.0,9.0,24,0.00,,,0.00,Wunderground v.1.15,2013-08-24 07:20:00,
2013-08-24 00:30:00,79.8,39.8,30.02,NW,312,8.0,8.0,24,0.00,,,0.00,Wunderground v.1.15,2013-08-24 07:30:00,
2013-08-24 00:35:00,79.7,39.7,30.02,NW,325,7.0,14.0,24,0.00,,,0.00,Wunderground v.1.15,2013-08-24 07:35:00,
2013-08-24 00:45:00,79.5,40.6,30.02,NW,323,7.0,14.0,25,0.00,,,0.00,Wunderground v.1.15,2013-08-24 07:45:00,
2013-08-24 00:50:00,79.4,40.5,30.02,NNW,339,5.0,5.0,25,0.00,,,0.00,Wunderground v.1.15,2013-08-24 07:50:00,
2013-08-24 00:55:00,79.3,40.4,30.02,NNW,341,4.0,14.0,25,0.00,,,0.00,Wunderground v.1.15,2013-08-24 07:55:00,
2013-08-24 01:00:00,79.3,41.4,30.02,NW,316,5.0,14.0,26,0.00,,,0.00,Wunderground v.1.15,2013-08-24 08:00:00,
2013-08-24 01:10:00,79.0,42.2,30.02,NW,321,7.0,14.0,27,0.00,,,0.00,Wunderground v.1.15,2013-08-24 08:10:00,
2013-08-24 01:15:00,78.9,42.1,30.02,NW,318,6.0,14.0,27,0.00,,,0.00,Wunderground v.1.15,2013-08-24 08:15:00,
2013-08-24 01:20:00,78.7,42.8,30.02,NW,310,4.0,4.0,28,0.00,,,0.00,Wunderground v.1.15,2013-08-24 08:20:00,
2013-08-24 01:30:00,78.6,44.6,30.02,WNW,303,2.0,2.0,30,0.00,,,0.00,Wunderground v.1.15,2013-08-24 08:30:00,
2013-08-24 01:35:00,78.4,45.3,30.02,NW,304,2.0,12.0,31,0.00,,,0.00,Wunderground v.1.15,2013-08-24 08:35:00,
2013-08-24 01:40:00,78.3,46.0,30.02,West,263,1.0,1.0,32,0.00,,,0.00,Wunderground v.1.15,2013-08-24 08:40:00,
2013-08-24 01:50:00,77.8,45.6,30.02,NNW,331,0.0,12.0,32,0.00,,,0.00,Wunderground v.1.15,2013-08-24 08:50:00,
2013-08-24 02:00:00,77.9,45.7,30.02,NNW,348,1.0,12.0,32,0.00,,,0.00,Wunderground v.1.15,2013-08-24 09:00:00,
2013-08-24 02:05:00,78.0,44.9,30.02,NNW,340,1.0,12.0,31,0.00,,,0.00,Wunderground v.1.15,2013-08-24 09:05:00,
2013-08-24 02:15:00,77.3,42.6,30.02,North,353,0.0,10.0,29,0.00,,,0.00,Wunderground v.1.15,2013-08-24 09:15:00,
2013-08-24 02:20:00,76.7,42.9,30.02,North,353,0.0,10.0,30,0.00,,,0.00,Wunderground v.1.15,2013-08-24 09:20:00,
2013-08-24 02:25:00,76.3,46.6,30.02,North,354,0.0,10.0,35,0.00,,,0.00,Wunderground v.1.15,2013-08-24 09:25:00,
2013-08-24 02:35:00,77.3,51.8,30.02,WNW,296,2.0,9.0,41,0.00,,,0.00,Wunderground v.1.15,2013-08-24 09:35:00,
2013-08-24 02:45:00,78.0,54.3,30.02,NW,316,5.0,10.0,44,0.00,,,0.00,Wunderground v.1.15,2013-08-24 09:45:00,
2013-08-24 02:50:00,78.0,54.9,30.01,NW,325,5.0,5.0,45,0.00,,,0.00,Wunderground v.1.15,2013-08-24 09:50:00,
2013-08-24 03:00:00,78.0,57.3,30.01,NW,313,7.0,10.0,49,0.00,,,0.00,Wunderground v.1.15,2013-08-24 10:00:00,
2013-08-24 03:05:00,77.9,57.8,30.02,WNW,292,7.0,15.0,50,0.00,,,0.00,Wunderground v.1.15,2013-08-24 10:05:00,
2013-08-24 03:15:00,77.8,58.8,30.01,NW,313,8.0,15.0,52,0.00,,,0.00,Wunderground v.1.15,2013-08-24 10:15:00,
2013-08-24 03:20:00,77.8,58.8,30.01,NW,323,8.0,15.0,52,0.00,,,0.00,Wunderground v.1.15,2013-08-24 10:20:00,
2013-08-24 03:30:00,77.5,58.5,30.02,NW,304,8.0,8.0,52,0.00,,,0.00,Wunderground v.1.15,2013-08-24 10:30:00,
2013-08-24 03:35:00,77.4,58.4,30.02,NW,316,7.0,9.0,52,0.00,,,0.00,Wunderground v.1.15,2013-08-24 10:35:00,
2013-08-24 03:45:00,76.9,56.3,30.02,NW,310,5.0,17.0,49,0.00,,,0.00,Wunderground v.1.15,2013-08-24 10:45:00,
2013-08-24 03:50:00,76.8,56.2,30.02,NW,319,5.0,17.0,49,0.00,,,0.00,Wunderground v.1.15,2013-08-24 10:50:00,
2013-08-24 04:00:00,76.6,56.0,30.02,NW,314,5.0,17.0,49,0.00,,,0.00,Wunderground v.1.15,2013-08-24 11:00:00,
2013-08-24 04:05:00,76.3,56.8,30.02,NW,322,4.0,17.0,51,0.00,,,0.00,Wunderground v.1.15,2013-08-24 11:05:00,
2013-08-24 04:15:00,75.9,59.6,30.02,NW,309,4.0,12.0,57,0.00,,,0.00,Wunderground v.1.15,2013-08-24 11:15:00,
2013-08-24 04:20:00,75.8,60.0,30.02,WNW,294,3.0,12.0,58,0.00,,,0.00,Wunderground v.1.15,2013-08-24 11:20:00,
2013-08-24 04:30:00,75.3,60.0,30.02,WNW,283,2.0,2.0,59,0.00,,,0.00,Wunderground v.1.15,2013-08-24 11:30:00,
2013-08-24 04:35:00,75.1,60.3,30.03,WNW,285,2.0,9.0,60,0.00,,,0.00,Wunderground v.1.15,2013-08-24 11:35:00,
2013-08-24 04:45:00,74.6,59.8,30.03,West,272,1.0,9.0,60,0.00,,,0.00,Wunderground v.1.15,2013-08-24 11:45:00,
2013-08-24 04:50:00,74.3,59.5,30.03,West,272,0.0,9.0,60,0.00,,,0.00,Wunderground v.1.15,2013-08-24 11:50:00,
2013-08-24 04:55:00,74.1,59.3,30.03,West,272,0.0,9.0,60,0.00,,,0.00,Wunderground v.1.15,2013-08-24 11:55:00,
2013-08-24 05:05:00,73.7,58.9,30.03,West,272,0.0,9.0,60,0.00,,,0.00,Wunderground v.1.15,2013-08-24 12:05:00,
2013-08-24 05:10:00,73.4,58.7,30.03,West,272,0.0,9.0,60,0.00,,,0.00,Wunderground v.1.15,2013-08-24 12:10:00,
2013-08-24 05:15:00,73.3,59.0,30.03,West,272,0.0,9.0,61,0.00,,,0.00,Wunderground v.1.15,2013-08-24 12:15:00,
2013-08-24 05:25:00,73.1,59.8,30.03,West,272,0.0,9.0,63,0.00,,,0.00,Wunderground v.1.15,2013-08-24 12:25:00,
2013-08-24 05:30:00,72.7,59.8,30.03,West,272,0.0,9.0,64,0.00,,,0.00,Wunderground v.1.15,2013-08-24 12:30:00,
2013-08-24 05:35:00,72.2,59.3,30.03,West,272,0.0,9.0,64,0.00,,,0.00,Wunderground v.1.15,2013-08-24 12:35:00,
2013-08-24 05:45:00,72.0,59.6,30.02,West,272,0.0,4.0,65,0.00,,,0.00,Wunderground v.1.15,2013-08-24 12:45:00,
2013-08-24 05:50:00,71.7,58.4,30.03,NNW,341,0.0,4.0,63,0.00,,,0.00,Wunderground v.1.15,2013-08-24 12:50:00,
2013-08-24 06:00:00,71.7,58.0,30.03,North,10,1.0,1.0,62,0.00,,,0.00,Wunderground v.1.15,2013-08-24 13:00:00,
2013-08-24 06:05:00,71.9,58.6,30.03,North,10,1.0,5.0,63,0.00,,,0.00,Wunderground v.1.15,2013-08-24 13:05:00,
2013-08-24 06:10:00,71.7,58.9,30.03,North,10,0.0,5.0,64,0.00,,,0.00,Wunderground v.1.15,2013-08-24 13:10:00,
2013-08-24 06:15:00,71.5,58.7,30.03,North,10,0.0,5.0,64,0.00,,,0.00,Wunderground v.1.15,2013-08-24 13:15:00,
2013-08-24 06:20:00,71.2,58.8,30.03,North,10,0.0,5.0,65,0.00,,,0.00,Wunderground v.1.15,2013-08-24 13:20:00,
2013-08-24 06:30:00,70.6,58.7,30.03,North,10,0.0,5.0,66,0.00,,,0.00,Wunderground v.1.15,2013-08-24 13:30:00,
2013-08-24 06:35:00,70.3,58.8,30.03,North,10,0.0,5.0,67,0.00,,,0.00,Wunderground v.1.15,2013-08-24 13:35:00,
2013-08-24 06:45:00,70.2,58.7,30.03,North,10,0.0,0.0,67,0.00,,,0.00,Wunderground v.1.15,2013-08-24 13:45:00,
2013-08-24 06:50:00,70.2,55.2,30.03,North,10,1.0,1.0,59,0.00,,,0.00,Wunderground v.1.15,2013-08-24 13:50:00,
2013-08-24 07:00:00,70.6,56.5,30.03,North,10,0.0,0.0,61,0.00,,,0.00,Wunderground v.1.15,2013-08-24 14:00:00,
2013-08-24 07:05:00,70.9,56.3,30.03,North,10,0.0,4.0,60,0.00,,,0.00,Wunderground v.1.15,2013-08-24 14:05:00,
2013-08-24 07:15:00,71.6,60.5,30.03,North,8,1.0,4.0,68,0.00,,,0.00,Wunderground v.1.15,2013-08-24 14:15:00,
2013-08-24 07:20:00,71.9,58.2,30.03,ENE,68,2.0,2.0,62,0.00,,,0.00,Wunderground v.1.15,2013-08-24 14:20:00,
2013-08-24 07:30:00,72.3,59.0,30.03,NE,36,1.0,1.0,63,0.00,,,0.00,Wunderground v.1.15,2013-08-24 14:30:00,
2013-08-24 07:35:00,72.9,60.4,30.03,NNE,21,2.0,3.0,65,0.00,,,0.00,Wunderground v.1.15,2013-08-24 14:35:00,
2013-08-24 07:40:00,73.3,61.7,30.03,NNE,17,4.0,8.0,67,0.00,,,0.00,Wunderground v.1.15,2013-08-24 14:40:00,
2013-08-24 07:45:00,73.4,61.8,30.03,North,352,5.0,9.0,67,0.00,,,0.00,Wunderground v.1.15,2013-08-24 14:45:00,
2013-08-24 07:50:00,73.7,62.1,30.03,NNW,342,6.0,8.0,67,0.00,,,0.00,Wunderground v.1.15,2013-08-24 14:50:00,
2013-08-24 08:00:00,74.1,62.9,30.04,North,352,6.0,8.0,68,0.00,,,0.00,Wunderground v.1.15,2013-08-24 15:00:00,
2013-08-24 08:05:00,74.2,62.5,30.03,NNW,331,6.0,13.0,67,0.00,,,0.00,Wunderground v.1.15,2013-08-24 15:05:00,
2013-08-24 08:30:00,74.9,63.2,30.03,NNW,337,9.0,9.0,67,0.00,,,0.00,Wunderground v.1.15,2013-08-24 15:30:00,
2013-08-24 08:35:00,75.2,63.1,30.03,NW,306,8.0,11.0,66,0.00,,,0.00,Wunderground v.1.15,2013-08-24 15:35:00,
2013-08-24 08:45:00,76.2,60.3,30.03,West,281,8.0,17.0,58,0.00,,,0.00,Wunderground v.1.15,2013-08-24 15:45:00,
2013-08-24 08:50:00,77.3,59.4,30.04,NW,312,7.0,17.0,54,0.00,,,0.00,Wunderground v.1.15,2013-08-24 15:50:00,
2013-08-24 09:00:00,78.4,58.2,30.04,NW,317,8.0,8.0,50,0.00,,,0.00,Wunderground v.1.15,2013-08-24 16:00:00,
2013-08-24 09:05:00,79.2,59.0,30.04,NNW,328,6.0,14.0,50,0.00,,,0.00,Wunderground v.1.15,2013-08-24 16:05:00,
2013-08-24 09:10:00,79.5,60.9,30.05,NNW,340,5.0,14.0,53,0.00,,,0.00,Wunderground v.1.15,2013-08-24 16:10:00,
2013-08-24 09:15:00,79.2,61.1,30.05,WNW,297,5.0,14.0,54,0.00,,,0.00,Wunderground v.1.15,2013-08-24 16:15:00,
2013-08-24 09:20:00,79.6,61.0,30.05,NW,305,4.0,4.0,53,0.00,,,0.00,Wunderground v.1.15,2013-08-24 16:20:00,
2013-08-24 09:30:00,79.6,62.0,30.06,NW,323,6.0,6.0,55,0.00,,,0.00,Wunderground v.1.15,2013-08-24 16:30:00,
2013-08-24 09:35:00,79.7,61.6,30.06,NW,318,5.0,13.0,54,0.00,,,0.00,Wunderground v.1.15,2013-08-24 16:35:00,
2013-08-24 09:45:00,80.0,60.8,30.06,West,278,6.0,7.0,52,0.00,,,0.00,Wunderground v.1.15,2013-08-24 16:45:00,
2013-08-24 09:50:00,79.6,59.3,30.07,WNW,302,7.0,13.0,50,0.00,,,0.00,Wunderground v.1.15,2013-08-24 16:50:00,
2013-08-24 09:55:00,79.3,60.7,30.07,WNW,300,7.0,13.0,53,0.00,,,0.00,Wunderground v.1.15,2013-08-24 16:55:00,
2013-08-24 10:00:00,79.7,62.1,30.07,NW,325,7.0,13.0,55,0.00,,,0.00,Wunderground v.1.15,2013-08-24 17:00:00,
2013-08-24 10:10:00,79.4,63.8,30.08,WNW,286,5.0,5.0,59,0.00,,,0.00,Wunderground v.1.15,2013-08-24 17:10:00,
2013-08-24 10:15:00,79.4,63.8,30.08,SW,235,3.0,15.0,59,0.00,,,0.00,Wunderground v.1.15,2013-08-24 17:15:00,
2013-08-24 10:20:00,79.8,63.7,30.08,WNW,294,4.0,15.0,58,0.00,,,0.00,Wunderground v.1.15,2013-08-24 17:20:00,
2013-08-24 10:25:00,80.0,63.4,30.08,WSW,257,6.0,15.0,57,0.00,,,0.00,Wunderground v.1.15,2013-08-24 17:25:00,
2013-08-24 10:35:00,80.5,62.8,30.08,WNW,298,5.0,8.0,55,0.00,,,0.00,Wunderground v.1.15,2013-08-24 17:35:00,
2013-08-24 10:40:00,80.3,63.2,30.09,WSW,243,6.0,14.0,56,0.00,,,0.00,Wunderground v.1.15,2013-08-24 17:40:00,
2013-08-24 10:45:00,80.2,62.0,30.09,WSW,244,7.0,14.0,54,0.00,,,0.00,Wunderground v.1.15,2013-08-24 17:45:00,
2013-08-24 10:50:00,80.3,62.7,30.09,West,275,8.0,14.0,55,0.00,,,0.00,Wunderground v.1.15,2013-08-24 17:50:00,
2013-08-24 11:00:00,80.3,61.6,30.09,NW,305,8.0,14.0,53,0.00,,,0.00,Wunderground v.1.15,2013-08-24 18:00:00,
2013-08-24 11:05:00,80.2,62.0,30.09,West,262,6.0,14.0,54,0.00,,,0.00,Wunderground v.1.15,2013-08-24 18:05:00,
2013-08-24 11:15:00,79.7,62.6,30.09,WNW,295,8.0,14.0,56,0.00,,,0.00,Wunderground v.1.15,2013-08-24 18:15:00,
2013-08-24 11:20:00,79.5,62.9,30.09,WNW,300,9.0,14.0,57,0.00,,,0.00,Wunderground v.1.15,2013-08-24 18:20:00,
2013-08-24 11:30:00,79.1,62.6,30.09,West,275,10.0,14.0,57,0.00,,,0.00,Wunderground v.1.15,2013-08-24 18:30:00,
2013-08-24 11:35:00,78.9,62.9,30.09,WNW,296,9.0,20.0,58,0.00,,,0.00,Wunderground v.1.15,2013-08-24 18:35:00,
2013-08-24 11:40:00,79.3,63.7,30.09,WNW,297,9.0,9.0,59,0.00,,,0.00,Wunderground v.1.15,2013-08-24 18:40:00,
2013-08-24 11:45:00,78.9,63.8,30.09,WNW,291,9.0,20.0,60,0.00,,,0.00,Wunderground v.1.15,2013-08-24 18:45:00,
2013-08-24 11:50:00,79.6,63.5,30.09,WNW,290,7.0,20.0,58,0.00,,,0.00,Wunderground v.1.15,2013-08-24 18:50:00,
2013-08-24 12:00:00,80.7,63.5,30.09,WNW,287,10.0,20.0,56,0.00,,,0.00,Wunderground v.1.15,2013-08-24 19:00:00,
2013-08-24 12:05:00,80.4,64.3,30.09,NW,306,10.0,20.0,58,0.00,,,0.00,Wunderground v.1.15,2013-08-24 19:05:00,
2013-08-24 12:15:00,81.3,64.1,30.09,WNW,291,7.0,19.0,56,0.00,,,0.00,Wunderground v.1.15,2013-08-24 19:15:00,
2013-08-24 12:20:00,81.2,64.0,30.08,West,262,9.0,19.0,56,0.00,,,0.00,Wunderground v.1.15,2013-08-24 19:20:00,
2013-08-24 12:30:00,80.8,63.1,30.08,NW,313,12.0,19.0,55,0.00,,,0.00,Wunderground v.1.15,2013-08-24 19:30:00,
2013-08-24 12:35:00,81.4,63.2,30.08,NW,304,11.0,20.0,54,0.00,,,0.00,Wunderground v.1.15,2013-08-24 19:35:00,
2013-08-24 12:40:00,81.8,62.5,30.08,NW,305,10.0,20.0,52,0.00,,,0.00,Wunderground v.1.15,2013-08-24 19:40:00,
2013-08-24 12:50:00,81.3,64.1,30.07,WNW,290,11.0,11.0,56,0.00,,,0.00,Wunderground v.1.15,2013-08-24 19:50:00,
2013-08-24 13:00:00,81.8,62.5,30.06,WNW,285,11.0,11.0,52,0.00,,,0.00,Wunderground v.1.15,2013-08-24 20:00:00,
2013-08-24 13:05:00,81.7,62.9,30.06,NW,317,11.0,22.0,53,0.00,,,0.00,Wunderground v.1.15,2013-08-24 20:05:00,
2013-08-24 13:15:00,82.5,64.2,30.06,NNW,331,10.0,21.0,54,0.00,,,0.00,Wunderground v.1.15,2013-08-24 20:15:00,
2013-08-24 13:20:00,82.5,62.5,30.06,WNW,283,11.0,11.0,51,0.00,,,0.00,Wunderground v.1.15,2013-08-24 20:20:00,
2013-08-24 13:30:00,81.7,62.9,30.06,NW,312,11.0,11.0,53,0.00,,,0.00,Wunderground v.1.15,2013-08-24 20:30:00,
2013-08-24 13:35:00,82.1,62.7,30.05,WNW,298,10.0,22.0,52,0.00,,,0.00,Wunderground v.1.15,2013-08-24 20:35:00,
2013-08-24 13:45:00,82.8,64.5,30.05,WNW,293,8.0,22.0,54,0.00,,,0.00,Wunderground v.1.15,2013-08-24 20:45:00,
2013-08-24 13:50:00,82.7,64.4,30.05,NW,316,10.0,22.0,54,0.00,,,0.00,Wunderground v.1.15,2013-08-24 20:50:00,
2013-08-24 14:00:00,82.7,63.8,30.04,WNW,289,9.0,9.0,53,0.00,,,0.00,Wunderground v.1.15,2013-08-24 21:00:00,
2013-08-24 14:05:00,82.4,64.6,30.04,NW,323,7.0,18.0,55,0.00,,,0.00,Wunderground v.1.15,2013-08-24 21:05:00,
2013-08-24 14:10:00,82.5,64.2,30.04,NW,306,8.0,8.0,54,0.00,,,0.00,Wunderground v.1.15,2013-08-24 21:10:00,
2013-08-24 14:20:00,81.8,64.6,30.03,West,278,8.0,18.0,56,0.00,,,0.00,Wunderground v.1.15,2013-08-24 21:20:00,
2013-08-24 14:25:00,80.8,64.6,30.04,WNW,294,8.0,18.0,58,0.00,,,0.00,Wunderground v.1.15,2013-08-24 21:25:00,
2013-08-24 14:30:00,80.2,66.9,30.04,WNW,296,8.0,8.0,64,0.00,,,0.00,Wunderground v.1.15,2013-08-24 21:30:00,
2013-08-24 14:35:00,79.2,66.9,30.05,WNW,293,7.0,17.0,66,0.00,,,0.01,Wunderground v.1.15,2013-08-24 21:35:00,
2013-08-24 14:45:00,76.6,67.7,30.05,NW,322,5.0,17.0,74,0.09,,,0.06,Wunderground v.1.15,2013-08-24 21:45:00,
2013-08-24 14:50:00,76.4,67.9,30.06,NW,319,3.0,17.0,75,0.05,,,0.06,Wunderground v.1.15,2013-08-24 21:50:00,
2013-08-24 15:00:00,78.6,68.8,30.05,NNW,336,5.0,17.0,72,0.00,,,0.06,Wunderground v.1.15,2013-08-24 22:00:00,
2013-08-24 15:05:00,79.3,64.2,30.04,WNW,293,7.0,17.0,60,0.00,,,0.06,Wunderground v.1.15,2013-08-24 22:05:00,
2013-08-24 15:10:00,80.6,65.4,30.03,WNW,294,8.0,8.0,60,0.00,,,0.07,Wunderground v.1.15,2013-08-24 22:10:00,
2013-08-24 15:20:00,82.1,66.4,30.02,WNW,285,9.0,9.0,59,0.00,,,0.07,Wunderground v.1.15,2013-08-24 22:20:00,
2013-08-24 15:30:00,82.3,64.0,30.03,WNW,288,10.0,10.0,54,0.00,,,0.07,Wunderground v.1.15,2013-08-24 22:30:00,
2013-08-24 15:35:00,82.4,63.0,30.03,West,277,10.0,19.0,52,0.00,,,0.07,Wunderground v.1.15,2013-08-24 22:35:00,
2013-08-24 15:45:00,82.7,66.4,30.03,NW,318,9.0,19.0,58,0.00,,,0.07,Wunderground v.1.15,2013-08-24 22:45:00,
2013-08-24 15:50:00,82.4,66.1,30.03,West,264,10.0,10.0,58,0.00,,,0.07,Wunderground v.1.15,2013-08-24 22:50:00,
2013-08-24 15:55:00,81.8,66.1,30.03,WNW,286,10.0,13.0,59,0.00,,,0.07,Wunderground v.1.15,2013-08-24 22:55:00,
2013-08-24 16:00:00,81.2,65.5,30.03,WNW,294,11.0,11.0,59,0.00,,,0.07,Wunderground v.1.15,2013-08-24 23:00:00,
2013-08-24 16:05:00,81.6,65.4,30.03,WNW,283,11.0,15.0,58,0.00,,,0.07,Wunderground v.1.15,2013-08-24 23:05:00,
2013-08-24 16:15:00,81.4,63.7,30.04,WNW,298,14.0,21.0,55,0.00,,,0.07,Wunderground v.1.15,2013-08-24 23:15:00,
2013-08-24 16:20:00,81.6,64.9,30.03,NW,321,14.0,21.0,57,0.00,,,0.07,Wunderground v.1.15,2013-08-24 23:20:00,
2013-08-24 16:30:00,81.2,65.5,30.04,WSW,251,12.0,21.0,59,0.00,,,0.07,Wunderground v.1.15,2013-08-24 23:30:00,
2013-08-24 16:35:00,81.0,64.8,30.03,NW,304,11.0,23.0,58,0.00,,,0.07,Wunderground v.1.15,2013-08-24 23:35:00,
2013-08-24 16:45:00,81.2,65.5,30.04,West,267,10.0,23.0,59,0.00,,,0.07,Wunderground v.1.15,2013-08-24 23:45:00,
2013-08-24 16:50:00,81.1,65.4,30.03,WNW,300,11.0,11.0,59,0.00,,,0.07,Wunderground v.1.15,2013-08-24 23:50:00,
2013-08-24 17:00:00,79.8,65.6,30.04,NW,316,10.0,10.0,62,0.00,,,0.07,Wunderground v.1.15,2013-08-25 00:00:00,
2013-08-24 17:05:00,78.9,65.7,30.04,NW,318,11.0,11.0,64,0.00,,,0.07,Wunderground v.1.15,2013-08-25 00:05:00,
2013-08-24 17:15:00,78.4,65.2,30.04,WNW,299,10.0,21.0,64,0.00,,,0.07,Wunderground v.1.15,2013-08-25 00:15:00,
2013-08-24 17:20:00,78.4,64.8,30.05,NW,325,8.0,8.0,63,0.00,,,0.07,Wunderground v.1.15,2013-08-25 00:20:00,
2013-08-24 17:30:00,78.6,64.9,30.05,NNW,340,8.0,8.0,63,0.00,,,0.07,Wunderground v.1.15,2013-08-25 00:30:00,
2013-08-24 17:35:00,79.0,65.3,30.06,NW,308,6.0,11.0,63,0.00,,,0.07,Wunderground v.1.15,2013-08-25 00:35:00,
2013-08-24 17:45:00,78.9,64.3,30.06,WNW,294,6.0,20.0,61,0.00,,,0.07,Wunderground v.1.15,2013-08-25 00:45:00,
2013-08-24 17:50:00,78.5,64.4,30.06,NW,314,5.0,5.0,62,0.00,,,0.07,Wunderground v.1.15,2013-08-25 00:50:00,
2013-08-24 18:00:00,78.1,64.5,30.07,WNW,302,7.0,7.0,63,0.00,,,0.07,Wunderground v.1.15,2013-08-25 01:00:00,
2013-08-24 18:05:00,77.8,64.6,30.07,WNW,285,8.0,8.0,64,0.00,,,0.07,Wunderground v.1.15,2013-08-25 01:05:00,
2013-08-24 18:15:00,76.7,64.5,30.07,WNW,302,9.0,18.0,66,0.00,,,0.07,Wunderground v.1.15,2013-08-25 01:15:00,
2013-08-24 18:20:00,75.2,63.9,30.07,NW,306,10.0,18.0,68,0.00,,,0.07,Wunderground v.1.15,2013-08-25 01:20:00,
2013-08-24 18:30:00,74.1,62.9,30.07,NW,304,8.0,18.0,68,0.00,,,0.07,Wunderground v.1.15,2013-08-25 01:30:00,
2013-08-24 18:35:00,73.8,62.6,30.06,NW,314,9.0,22.0,68,0.00,,,0.07,Wunderground v.1.15,2013-08-25 01:35:00,
2013-08-24 18:40:00,73.8,62.6,30.06,NW,308,11.0,11.0,68,0.00,,,0.07,Wunderground v.1.15,2013-08-25 01:40:00,
2013-08-24 18:50:00,73.8,62.6,30.06,NNW,331,10.0,22.0,68,0.00,,,0.07,Wunderground v.1.15,2013-08-25 01:50:00,
2013-08-24 19:00:00,73.1,62.3,30.06,WNW,298,9.0,22.0,69,0.00,,,0.07,Wunderground v.1.15,2013-08-25 02:00:00,
2013-08-24 19:05:00,72.8,61.6,30.06,NW,314,9.0,22.0,68,0.00,,,0.07,Wunderground v.1.15,2013-08-25 02:05:00,
2013-08-24 19:15:00,72.6,61.8,30.08,NNW,337,8.0,21.0,69,0.00,,,0.07,Wunderground v.1.15,2013-08-25 02:15:00,
2013-08-24 19:25:00,72.4,62.5,30.08,WNW,300,7.0,21.0,71,0.00,,,0.07,Wunderground v.1.15,2013-08-25 02:25:00,
2013-08-24 19:30:00,72.2,62.7,30.09,South,185,4.0,21.0,72,0.00,,,0.07,Wunderground v.1.15,2013-08-25 02:30:00,
2013-08-24 19:35:00,71.6,62.9,30.09,West,280,2.0,21.0,74,0.00,,,0.07,Wunderground v.1.15,2013-08-25 02:35:00,
2013-08-24 19:45:00,71.2,62.9,30.10,SE,130,3.0,21.0,75,0.00,,,0.07,Wunderground v.1.15,2013-08-25 02:45:00,
2013-08-24 19:50:00,71.3,62.6,30.10,NNE,32,3.0,21.0,74,0.00,,,0.07,Wunderground v.1.15,2013-08-25 02:50:00,
2013-08-24 19:55:00,70.6,62.3,30.10,NNE,29,4.0,21.0,75,0.00,,,0.07,Wunderground v.1.15,2013-08-25 02:55:00,
2013-08-24 20:05:00,70.9,61.4,30.10,North,10,2.0,3.0,72,0.00,,,0.07,Wunderground v.1.15,2013-08-25 03:05:00,
2013-08-24 20:15:00,70.2,61.5,30.10,North,10,2.0,16.0,74,0.00,,,0.07,Wunderground v.1.15,2013-08-25 03:15:00,
2013-08-24 20:20:00,70.2,61.5,30.10,ENE,60,3.0,16.0,74,0.00,,,0.07,Wunderground v.1.15,2013-08-25 03:20:00,
2013-08-24 20:30:00,69.9,61.6,30.11,SSW,192,3.0,16.0,75,0.00,,,0.07,Wunderground v.1.15,2013-08-25 03:30:00,
2013-08-24 20:35:00,70.2,61.1,30.10,SE,142,3.0,16.0,73,0.00,,,0.07,Wunderground v.1.15,2013-08-25 03:35:00,
2013-08-24 20:45:00,70.8,61.3,30.10,ENE,58,1.0,10.0,72,0.00,,,0.07,Wunderground v.1.15,2013-08-25 03:45:00,
2013-08-24 20:50:00,71.0,61.5,30.10,WSW,248,0.0,10.0,72,0.00,,,0.07,Wunderground v.1.15,2013-08-25 03:50:00,
2013-08-24 21:00:00,72.0,61.3,30.11,NNW,337,3.0,10.0,69,0.00,,,0.07,Wunderground v.1.15,2013-08-25 04:00:00,
2013-08-24 21:05:00,72.2,61.5,30.11,NNW,348,5.0,16.0,69,0.00,,,0.07,Wunderground v.1.15,2013-08-25 04:05:00,
2013-08-24 21:10:00,72.1,61.8,30.10,NNW,330,5.0,5.0,70,0.00,,,0.07,Wunderground v.1.15,2013-08-25 04:10:00,
2013-08-24 21:15:00,72.1,61.4,30.10,West,281,5.0,16.0,69,0.00,,,0.07,Wunderground v.1.15,2013-08-25 04:15:00,
2013-08-24 21:20:00,72.3,61.1,30.10,NW,311,6.0,16.0,68,0.00,,,0.07,Wunderground v.1.15,2013-08-25 04:20:00,
2013-08-24 21:25:00,72.4,60.8,30.10,WNW,302,7.0,16.0,67,0.00,,,0.07,Wunderground v.1.15,2013-08-25 04:25:00,
2013-08-24 21:30:00,72.4,60.4,30.10,WNW,296,8.0,8.0,66,0.00,,,0.07,Wunderground v.1.15,2013-08-25 04:30:00,
2013-08-24 21:40:00,72.2,60.6,30.10,WNW,284,10.0,19.0,67,0.00,,,0.07,Wunderground v.1.15,2013-08-25 04:40:00,
2013-08-24 21:45:00,72.2,60.6,30.11,West,278,10.0,19.0,67,0.00,,,0.07,Wunderground v.1.15,2013-08-25 04:45:00,
2013-08-24 21:50:00,72.1,60.5,30.11,WNW,294,10.0,10.0,67,0.00,,,0.07,Wunderground v.1.15,2013-08-25 04:50:00,
2013-08-24 22:00:00,72.4,59.5,30.11,West,280,10.0,10.0,64,0.00,,,0.07,Wunderground v.1.15,2013-08-25 05:00:00,
2013-08-24 22:05:00,72.4,59.5,30.11,WNW,298,10.0,13.0,64,0.00,,,0.07,Wunderground v.1.15,2013-08-25 05:05:00,
2013-08-24 22:15:00,72.5,58.3,30.11,WNW,296,11.0,21.0,61,0.00,,,0.07,Wunderground v.1.15,2013-08-25 05:15:00,
2013-08-24 22:20:00,72.5,57.8,30.11,West,274,10.0,21.0,60,0.00,,,0.07,Wunderground v.1.15,2013-08-25 05:20:00,
2013-08-24 22:25:00,72.6,57.0,30.11,WNW,290,11.0,21.0,58,0.00,,,0.07,Wunderground v.1.15,2013-08-25 05:25:00,
2013-08-24 22:35:00,72.5,57.4,30.11,WNW,286,12.0,22.0,59,0.00,,,0.07,Wunderground v.1.15,2013-08-25 05:35:00,
2013-08-24 22:45:00,72.2,57.5,30.11,NW,308,11.0,14.0,60,0.00,,,0.07,Wunderground v.1.15,2013-08-25 05:45:00,
2013-08-24 22:50:00,72.1,57.0,30.12,NW,306,11.0,22.0,59,0.00,,,0.07,Wunderground v.1.15,2013-08-25 05:50:00,
2013-08-24 23:00:00,72.1,57.0,30.11,NW,313,11.0,22.0,59,0.00,,,0.07,Wunderground v.1.15,2013-08-25 06:00:00,
2013-08-24 23:05:00,72.0,56.4,30.12,NNW,327,11.0,22.0,58,0.00,,,0.07,Wunderground v.1.15,2013-08-25 06:05:00,
2013-08-24 23:15:00,71.7,56.6,30.11,WNW,298,10.0,16.0,59,0.00,,,0.07,Wunderground v.1.15,2013-08-25 06:15:00,
2013-08-24 23:20:00,71.9,56.3,30.11,West,279,10.0,21.0,58,0.00,,,0.07,Wunderground v.1.15,2013-08-25 06:20:00,
2013-08-24 23:30:00,72.0,55.9,30.11,NW,326,9.0,21.0,57,0.00,,,0.07,Wunderground v.1.15,2013-08-25 06:30:00,
2013-08-24 23:35:00,72.2,56.1,30.11,NW,309,10.0,23.0,57,0.00,,,0.07,Wunderground v.1.15,2013-08-25 06:35:00,
2013-08-24 23:45:00,70.5,58.6,30.11,NW,322,9.0,23.0,66,0.00,,,0.07,Wunderground v.1.15,2013-08-25 06:45:00,
2013-08-24 23:50:00,70.0,58.5,30.11,NW,317,9.0,9.0,67,0.00,,,0.07,Wunderground v.1.15,2013-08-25 06:50:00,
2013-08-24 23:55:00,69.7,58.3,30.11,NW,323,10.0,10.0,67,0.00,,,0.07,Wunderground v.1.15,2013-08-25 06:55:00,